Time;durP1;ratioP1;P1;durP2;ratioP2;P2;SDS_P1;SDS_P2;PMS_P1;PMS_P2;Temp;Humidity;BMP_temperature;BMP_pressure;BME280_temperature;BME280_humidity;BME280_pressure;Samples;Min_cycle;Max_cycle;Signal;HPM_P1;HPM_P2
2022/11/18 00:00:12;;;;;;;2.40;1.57;;;9.70;98.00;;;;;;5073516;28;20492;-88
2022/11/18 00:02:39;;;;;;;1.30;1.20;;;9.60;98.00;;;;;;5075084;28;20445;-89
2022/11/18 00:05:06;;;;;;;2.07;1.23;;;9.70;98.00;;;;;;5075489;28;20470;-89
2022/11/18 00:07:33;;;;;;;1.30;1.00;;;9.60;98.00;;;;;;5075608;28;20464;-89
2022/11/18 00:10:00;;;;;;;1.10;1.00;;;9.50;98.00;;;;;;5075627;28;20528;-88
2022/11/18 00:15:13;;;;;;;1.77;1.37;;;9.50;98.00;;;;;;5075298;28;20467;-89
2022/11/18 00:17:40;;;;;;;1.30;1.10;;;9.50;98.00;;;;;;5075110;28;20457;-88
2022/11/18 00:20:08;;;;;;;1.10;1.00;;;9.40;98.00;;;;;;5075087;28;20480;-89
2022/11/18 00:22:35;;;;;;;1.43;1.23;;;9.40;98.00;;;;;;5074751;28;20944;-89
2022/11/18 00:25:02;;;;;;;1.10;1.03;;;9.40;98.00;;;;;;5075365;28;20803;-89
2022/11/18 00:27:30;;;;;;;2.13;1.10;;;9.40;98.00;;;;;;5074906;28;20471;-88
2022/11/18 00:29:57;;;;;;;4.40;1.27;;;9.40;98.00;;;;;;5074975;28;20580;-89
2022/11/18 00:32:26;;;;;;;1.40;1.20;;;9.50;98.00;;;;;;5074259;28;20470;-89
2022/11/18 00:34:53;;;;;;;1.30;1.07;;;9.50;98.00;;;;;;5075129;28;20461;-89
2022/11/18 00:37:20;;;;;;;1.20;1.10;;;9.50;98.00;;;;;;5074892;28;20466;-89
2022/11/18 00:39:47;;;;;;;2.27;1.00;;;9.50;98.00;;;;;;5074752;28;21054;-89
2022/11/18 00:44:57;;;;;;;1.10;0.90;;;9.50;98.00;;;;;;5063964;28;20487;-89
2022/11/18 00:47:26;;;;;;;1.30;1.10;;;9.40;98.00;;;;;;5074824;28;20509;-89
2022/11/18 00:49:53;;;;;;;1.10;0.90;;;9.40;98.00;;;;;;5074363;28;20480;-88
2022/11/18 00:52:20;;;;;;;1.93;1.10;;;9.40;98.00;;;;;;5073816;28;20456;-88
2022/11/18 00:54:47;;;;;;;1.20;0.90;;;9.50;98.00;;;;;;5074897;28;20821;-89
2022/11/18 00:57:14;;;;;;;1.20;1.10;;;9.50;98.00;;;;;;5074675;28;20457;-88
2022/11/18 00:59:41;;;;;;;1.17;0.90;;;9.40;98.00;;;;;;5074372;28;20484;-89
2022/11/18 01:02:08;;;;;;;1.20;1.10;;;9.50;98.00;;;;;;5073781;28;20451;-89
2022/11/18 01:04:37;;;;;;;1.70;1.10;;;9.50;98.00;;;;;;5074687;28;20854;-88
2022/11/18 01:07:04;;;;;;;1.40;1.10;;;9.40;98.00;;;;;;5074735;28;20512;-88
2022/11/18 01:09:31;;;;;;;1.10;0.90;;;9.40;98.00;;;;;;5074399;28;20482;-88
2022/11/18 01:14:42;;;;;;;1.20;1.00;;;9.40;98.00;;;;;;5074384;28;20942;-88
2022/11/18 01:17:09;;;;;;;1.30;1.20;;;9.40;98.00;;;;;;5074260;28;20488;-89
2022/11/18 01:19:38;;;;;;;1.60;1.30;;;9.40;98.00;;;;;;5074364;28;20483;-89
2022/11/18 01:22:05;;;;;;;1.87;1.20;;;9.40;98.00;;;;;;5073473;28;20502;-89
2022/11/18 01:24:34;;;;;;;1.67;1.20;;;9.50;98.00;;;;;;5073868;28;20510;-88
2022/11/18 01:27:01;;;;;;;1.10;0.90;;;9.60;98.00;;;;;;5073933;28;20468;-89
2022/11/18 01:29:28;;;;;;;1.20;1.00;;;9.50;98.00;;;;;;5073749;28;20496;-89
2022/11/18 01:31:55;;;;;;;1.10;1.00;;;9.60;98.00;;;;;;5073611;28;20509;-88
2022/11/18 01:34:22;;;;;;;1.10;0.90;;;9.50;98.00;;;;;;5073333;28;20463;-88
2022/11/18 01:36:52;;;;;;;1.10;1.00;;;9.50;98.00;;;;;;5073838;28;20469;-88
2022/11/18 01:39:19;;;;;;;1.10;1.00;;;9.60;98.00;;;;;;5074201;28;20488;-88
2022/11/18 01:41:46;;;;;;;1.30;1.10;;;9.60;98.00;;;;;;5073816;28;20519;-89
2022/11/18 01:44:46;;;;;;;1.10;0.90;;;9.70;98.00;;;;;;5073333;28;20464;-89
2022/11/18 01:47:13;;;;;;;1.10;0.90;;;9.80;98.00;;;;;;5073585;28;20461;-88
2022/11/18 01:49:41;;;;;;;1.70;1.10;;;9.90;98.00;;;;;;5073672;28;20481;-89
2022/11/18 01:52:10;;;;;;;1.30;1.00;;;10.00;98.00;;;;;;5073101;28;20489;-88
2022/11/18 01:54:40;;;;;;;1.97;1.30;;;9.90;98.00;;;;;;5073623;28;20932;-89
2022/11/18 01:57:15;;;;;;;1.20;1.10;;;9.90;98.00;;;;;;5073223;28;20525;-88
2022/11/18 01:59:45;;;;;;;1.40;1.10;;;9.90;98.00;;;;;;5073486;28;20533;-88
2022/11/18 02:02:14;;;;;;;1.20;1.20;;;9.80;98.00;;;;;;5072897;28;20461;-89
2022/11/18 02:04:44;;;;;;;1.20;1.10;;;9.70;98.00;;;;;;5073115;28;20959;-88
2022/11/18 02:07:13;;;;;;;1.20;1.00;;;9.60;98.00;;;;;;5073736;28;20452;-88
2022/11/18 02:09:40;;;;;;;1.33;1.17;;;9.60;98.00;;;;;;5073165;28;20487;-88
2022/11/18 02:12:08;;;;;;;1.30;1.03;;;9.50;98.00;;;;;;5072689;28;20870;-89
2022/11/18 02:14:37;;;;;;;1.50;1.40;;;9.50;98.00;;;;;;5073166;28;20477;-89
2022/11/18 02:17:11;;;;;;;1.83;1.10;;;9.50;98.00;;;;;;5072632;28;20551;-88
2022/11/18 02:20:14;;;;;;;1.20;1.00;;;9.50;98.00;;;;;;5073291;28;20484;-88
2022/11/18 02:23:08;;;;;;;1.10;0.90;;;9.60;98.00;;;;;;5056016;28;20470;-88
2022/11/18 02:25:43;;;;;;;2.40;1.10;;;9.70;98.00;;;;;;5019840;28;20473;-88
2022/11/18 02:28:29;;;;;;;1.20;1.00;;;9.70;98.00;;;;;;5074900;28;20804;-89
2022/11/18 02:31:02;;;;;;;1.20;1.10;;;9.60;98.00;;;;;;5079083;28;20445;-88
2022/11/18 02:33:38;;;;;;;1.30;1.10;;;9.60;98.00;;;;;;5090912;28;20441;-89
2022/11/18 02:36:13;;;;;;;1.77;1.27;;;9.60;98.00;;;;;;5084198;28;20836;-88
2022/11/18 02:38:44;;;;;;;1.10;0.90;;;9.60;98.00;;;;;;5072587;28;20534;-88
2022/11/18 02:41:16;;;;;;;1.40;1.10;;;9.50;98.00;;;;;;5072727;28;20449;-88
2022/11/18 02:43:47;;;;;;;1.13;0.93;;;9.40;98.00;;;;;;5072107;28;20863;-88
2022/11/18 02:46:19;;;;;;;1.20;1.00;;;9.40;98.00;;;;;;5072622;28;20441;-88
2022/11/18 02:48:50;;;;;;;1.20;1.00;;;9.50;98.00;;;;;;5072304;28;20496;-88
2022/11/18 02:51:21;;;;;;;1.50;1.00;;;9.60;98.00;;;;;;5072515;28;20843;-88
2022/11/18 02:53:50;;;;;;;1.87;1.20;;;9.60;98.00;;;;;;5071658;28;20451;-89
2022/11/18 02:56:19;;;;;;;1.20;1.10;;;9.70;98.00;;;;;;5072336;28;20484;-89
2022/11/18 02:58:47;;;;;;;1.30;1.10;;;9.50;98.00;;;;;;5072508;28;20478;-88
2022/11/18 03:01:22;;;;;;;1.30;1.10;;;9.40;98.00;;;;;;5072397;28;20448;-89
2022/11/18 03:03:49;;;;;;;1.30;1.10;;;9.50;98.00;;;;;;5071693;28;20466;-89
2022/11/18 03:06:27;;;;;;;1.23;1.10;;;9.50;98.00;;;;;;5072285;28;20456;-89
2022/11/18 03:09:06;;;;;;;1.70;1.10;;;9.60;98.00;;;;;;5072333;28;20526;-88
2022/11/18 03:11:39;;;;;;;1.50;1.00;;;9.60;98.00;;;;;;5072187;28;20454;-89
2022/11/18 03:14:15;;;;;;;1.63;1.20;;;9.50;98.00;;;;;;5071513;28;20472;-88
2022/11/18 03:16:51;;;;;;;1.10;1.00;;;9.50;98.00;;;;;;5072273;28;20466;-88
2022/11/18 03:19:24;;;;;;;1.27;1.00;;;9.50;98.00;;;;;;5072420;28;20480;-88
2022/11/18 03:22:02;;;;;;;1.33;1.00;;;9.50;98.00;;;;;;5071760;28;20459;-89
2022/11/18 03:24:33;;;;;;;2.40;1.40;;;9.50;98.00;;;;;;5072031;28;20582;-88
2022/11/18 03:27:15;;;;;;;1.80;1.50;;;9.50;98.00;;;;;;5071813;28;20449;-89
2022/11/18 03:29:48;;;;;;;1.20;1.17;;;9.50;98.00;;;;;;5071759;28;20502;-88
2022/11/18 03:32:21;;;;;;;1.63;1.20;;;9.50;98.00;;;;;;5071562;28;20474;-89
2022/11/18 03:34:51;;;;;;;1.20;1.00;;;9.40;98.00;;;;;;5072972;28;20448;-88
2022/11/18 03:37:21;;;;;;;1.20;1.10;;;9.50;98.00;;;;;;5075873;28;20465;-89
2022/11/18 03:39:52;;;;;;;1.57;1.10;;;9.50;98.00;;;;;;5075722;28;20479;-88
2022/11/18 03:42:24;;;;;;;1.20;1.10;;;9.50;98.00;;;;;;5075578;28;20461;-88
2022/11/18 03:44:55;;;;;;;1.10;1.00;;;9.60;98.00;;;;;;5075910;28;20471;-88
2022/11/18 03:47:30;;;;;;;1.10;1.00;;;9.60;98.00;;;;;;5075932;28;20464;-88
2022/11/18 03:50:01;;;;;;;1.20;1.03;;;9.60;98.00;;;;;;5075868;28;20483;-88
2022/11/18 03:52:33;;;;;;;1.17;1.00;;;9.50;98.00;;;;;;5075420;28;20449;-89
2022/11/18 03:55:05;;;;;;;1.20;1.20;;;9.50;98.00;;;;;;5075893;28;20448;-89
2022/11/18 03:57:39;;;;;;;1.23;1.13;;;9.50;98.00;;;;;;5075746;28;20468;-89
2022/11/18 04:00:08;;;;;;;2.17;1.67;;;9.40;98.00;;;;;;5075593;28;20476;-88
2022/11/18 04:02:38;;;;;;;1.10;1.00;;;9.40;98.00;;;;;;5075080;28;20534;-89
2022/11/18 04:05:09;;;;;;;1.10;0.90;;;9.50;98.00;;;;;;5075281;28;20501;-88
2022/11/18 04:07:42;;;;;;;1.20;1.10;;;9.50;98.00;;;;;;5075426;28;20474;-88
2022/11/18 04:10:13;;;;;;;1.30;0.90;;;9.50;98.00;;;;;;5075324;28;20480;-88
2022/11/18 04:12:45;;;;;;;1.20;1.00;;;9.50;98.00;;;;;;5074852;28;20460;-89
2022/11/18 04:15:13;;;;;;;1.67;1.07;;;9.40;98.00;;;;;;5075402;28;20471;-88
2022/11/18 04:17:43;;;;;;;1.10;1.00;;;9.40;98.00;;;;;;5075303;28;20629;-89
2022/11/18 04:20:15;;;;;;;1.40;1.00;;;9.40;98.00;;;;;;5075001;28;20488;-89
2022/11/18 04:22:42;;;;;;;1.10;1.00;;;9.50;98.00;;;;;;5074716;28;20444;-88
2022/11/18 04:25:09;;;;;;;1.40;1.10;;;9.60;98.00;;;;;;5075043;28;20466;-88
2022/11/18 04:27:36;;;;;;;1.20;1.00;;;9.50;98.00;;;;;;5075138;28;20820;-89
2022/11/18 04:30:04;;;;;;;1.10;0.90;;;9.50;98.00;;;;;;5074854;28;21067;-88
2022/11/18 04:32:31;;;;;;;1.10;0.93;;;9.40;98.00;;;;;;5074572;28;20460;-88
2022/11/18 04:35:00;;;;;;;1.20;1.00;;;9.40;98.00;;;;;;5074800;28;20471;-88
2022/11/18 04:37:27;;;;;;;1.77;1.00;;;9.20;98.00;;;;;;5074570;28;20485;-88
2022/11/18 04:39:54;;;;;;;2.63;1.20;;;9.40;98.00;;;;;;5074830;28;20682;-89
2022/11/18 04:42:21;;;;;;;2.03;1.10;;;9.40;98.00;;;;;;5074380;28;20531;-88
2022/11/18 04:44:48;;;;;;;1.23;1.00;;;9.40;98.00;;;;;;5075070;28;20833;-88
2022/11/18 04:47:15;;;;;;;1.20;1.00;;;9.40;98.00;;;;;;5074636;28;20499;-89
2022/11/18 04:49:42;;;;;;;1.20;0.90;;;9.20;98.00;;;;;;5074780;28;21036;-88
2022/11/18 04:52:10;;;;;;;1.20;1.00;;;9.20;98.00;;;;;;5074062;28;20460;-88
2022/11/18 04:54:38;;;;;;;1.17;0.90;;;9.40;98.00;;;;;;5075002;28;20855;-88
2022/11/18 04:57:05;;;;;;;1.20;1.00;;;9.40;98.00;;;;;;5074540;28;20566;-88
2022/11/18 04:59:32;;;;;;;1.10;0.90;;;9.40;98.00;;;;;;5074284;28;20538;-88
2022/11/18 05:01:59;;;;;;;1.20;1.00;;;9.40;98.00;;;;;;5074659;28;21154;-88
2022/11/18 05:04:29;;;;;;;1.10;0.90;;;9.40;98.00;;;;;;5074589;28;20461;-88
2022/11/18 05:06:57;;;;;;;1.30;1.00;;;9.20;98.00;;;;;;5074358;28;20499;-88
2022/11/18 05:09:26;;;;;;;1.20;1.00;;;9.20;98.00;;;;;;5075045;28;20534;-89
2022/11/18 05:14:38;;;;;;;1.17;0.97;;;9.20;98.00;;;;;;5075137;28;20858;-89
2022/11/18 05:17:08;;;;;;;1.10;0.90;;;9.20;98.00;;;;;;5086000;28;20476;-89
2022/11/18 05:19:37;;;;;;;1.10;0.90;;;9.10;98.00;;;;;;5090286;28;20976;-88
2022/11/18 05:22:04;;;;;;;1.20;1.00;;;9.10;98.00;;;;;;5073548;28;20468;-88
2022/11/18 05:24:32;;;;;;;1.10;0.90;;;9.10;98.00;;;;;;5074330;28;20460;-89
2022/11/18 05:26:59;;;;;;;1.17;0.90;;;9.10;98.00;;;;;;5073951;28;20457;-88
2022/11/18 05:29:26;;;;;;;1.20;1.00;;;9.00;98.00;;;;;;5074013;28;20897;-88
2022/11/18 05:31:53;;;;;;;1.20;0.93;;;9.00;98.00;;;;;;5073631;28;20511;-88
2022/11/18 05:34:20;;;;;;;1.10;1.00;;;9.00;98.00;;;;;;5073544;28;20861;-89
2022/11/18 05:36:48;;;;;;;1.20;0.90;;;9.00;98.00;;;;;;5073666;28;21026;-88
2022/11/18 05:39:15;;;;;;;1.20;0.90;;;9.00;98.00;;;;;;5073557;28;20539;-88
2022/11/18 05:44:27;;;;;;;1.10;0.90;;;8.90;98.00;;;;;;5073605;28;20513;-88
2022/11/18 05:46:55;;;;;;;1.13;1.00;;;8.90;98.00;;;;;;5073395;28;20456;-88
2022/11/18 05:49:22;;;;;;;1.17;0.90;;;8.90;98.00;;;;;;5073297;28;20480;-88
2022/11/18 05:51:49;;;;;;;1.20;1.10;;;8.80;98.00;;;;;;5073115;28;20464;-88
2022/11/18 05:54:19;;;;;;;1.20;1.10;;;8.70;98.00;;;;;;5073157;28;20471;-88
2022/11/18 05:56:47;;;;;;;2.33;1.23;;;8.60;98.00;;;;;;5073488;28;20856;-89
2022/11/18 05:59:14;;;;;;;1.20;1.10;;;8.50;98.00;;;;;;5072845;28;20488;-89
2022/11/18 06:01:46;;;;;;;1.10;0.90;;;8.50;98.00;;;;;;5073044;28;20506;-88
2022/11/18 06:04:18;;;;;;;1.10;0.90;;;8.40;98.00;;;;;;5072843;28;20442;-88
2022/11/18 06:06:47;;;;;;;1.43;1.13;;;8.50;98.00;;;;;;5073422;28;20987;-89
2022/11/18 06:09:19;;;;;;;1.20;1.00;;;8.60;98.00;;;;;;5072939;28;20488;-88
2022/11/18 06:11:52;;;;;;;1.30;1.00;;;8.60;98.00;;;;;;5072872;28;20441;-88
2022/11/18 06:14:22;;;;;;;1.10;0.90;;;8.60;98.00;;;;;;5072893;28;20449;-88
2022/11/18 06:16:54;;;;;;;1.10;0.90;;;8.60;98.00;;;;;;5073200;28;20525;-88
2022/11/18 06:19:22;;;;;;;1.10;1.00;;;8.70;98.00;;;;;;5072779;28;20485;-88
2022/11/18 06:21:49;;;;;;;1.20;1.00;;;8.80;98.00;;;;;;5072686;28;20468;-88
2022/11/18 06:24:17;;;;;;;1.10;0.90;;;8.80;98.00;;;;;;5072211;28;20510;-89
2022/11/18 06:26:45;;;;;;;1.13;1.00;;;8.80;98.00;;;;;;5072616;28;20471;-88
2022/11/18 06:29:15;;;;;;;1.20;1.00;;;9.00;98.00;;;;;;5072353;28;20541;-88
2022/11/18 06:31:42;;;;;;;1.10;1.00;;;8.90;98.00;;;;;;5072914;28;20820;-88
2022/11/18 06:34:09;;;;;;;1.20;0.97;;;8.70;98.00;;;;;;5071948;28;20465;-88
2022/11/18 06:36:36;;;;;;;1.80;1.10;;;8.70;98.00;;;;;;5072253;28;20493;-88
2022/11/18 06:39:04;;;;;;;1.20;1.00;;;8.80;98.00;;;;;;5072386;28;20488;-88
2022/11/18 06:41:32;;;;;;;1.10;0.90;;;8.80;98.00;;;;;;5072520;28;20461;-88
2022/11/18 06:43:58;;;;;;;1.10;1.00;;;8.80;98.00;;;;;;5072284;28;20468;-89
2022/11/18 06:49:11;;;;;;;1.20;1.00;;;8.80;98.00;;;;;;5072733;28;20980;-89
2022/11/18 06:51:38;;;;;;;1.20;1.00;;;8.70;98.00;;;;;;5072065;28;20543;-88
2022/11/18 06:54:05;;;;;;;1.20;0.90;;;8.60;98.00;;;;;;5071774;28;20466;-88
2022/11/18 06:56:32;;;;;;;1.10;0.90;;;8.70;98.00;;;;;;5072648;28;20438;-88
2022/11/18 06:58:59;;;;;;;1.50;1.00;;;8.70;98.00;;;;;;5072079;28;20495;-88
2022/11/18 07:01:29;;;;;;;1.60;1.03;;;8.70;98.00;;;;;;5071938;28;20552;-87
2022/11/18 07:03:58;;;;;;;1.10;0.90;;;8.70;98.00;;;;;;5071902;28;20506;-88
2022/11/18 07:06:27;;;;;;;1.93;1.20;;;8.70;98.00;;;;;;5072372;28;20496;-88
2022/11/18 07:08:54;;;;;;;1.20;1.10;;;8.80;98.00;;;;;;5072590;28;21038;-89
2022/11/18 07:11:23;;;;;;;1.20;1.00;;;8.80;98.00;;;;;;5071955;28;20467;-88
2022/11/18 07:13:51;;;;;;;1.20;1.00;;;8.90;98.00;;;;;;5071428;28;20971;-89
2022/11/18 07:16:19;;;;;;;1.10;0.90;;;8.80;98.00;;;;;;5072090;28;20457;-88
2022/11/18 07:18:49;;;;;;;1.20;1.00;;;8.80;98.00;;;;;;5071943;28;20486;-87
2022/11/18 07:21:19;;;;;;;1.10;0.93;;;8.90;98.00;;;;;;5072245;28;20441;-88
2022/11/18 07:23:47;;;;;;;1.73;1.20;;;9.10;98.00;;;;;;5071751;28;20810;-88
2022/11/18 07:26:15;;;;;;;1.40;1.40;;;9.20;98.00;;;;;;5071815;28;20460;-89
2022/11/18 07:28:42;;;;;;;1.40;1.20;;;9.10;98.00;;;;;;5071863;28;20479;-89
2022/11/18 07:31:11;;;;;;;1.20;1.10;;;9.20;98.00;;;;;;5071767;28;20951;-89
2022/11/18 07:33:39;;;;;;;1.10;1.00;;;9.30;98.00;;;;;;5071653;28;20466;-89
2022/11/18 07:36:09;;;;;;;1.60;1.30;;;9.50;98.00;;;;;;5072236;28;20463;-89
2022/11/18 07:38:37;;;;;;;1.20;1.00;;;9.40;98.00;;;;;;5071559;28;20489;-90
2022/11/18 07:41:05;;;;;;;1.20;1.10;;;9.40;98.00;;;;;;5071590;28;20467;-89
2022/11/18 07:43:33;;;;;;;1.13;1.00;;;9.50;98.00;;;;;;5071060;28;20461;-89
2022/11/18 07:46:12;;;;;;;3.13;1.30;;;9.50;98.00;;;;;;5071990;28;20481;-90
2022/11/18 07:48:39;;;;;;;1.70;1.10;;;9.50;98.00;;;;;;5072063;28;20483;-89
2022/11/18 07:51:08;;;;;;;2.80;1.20;;;9.50;98.00;;;;;;5071925;28;20462;-90
2022/11/18 07:53:35;;;;;;;1.20;1.00;;;9.50;98.00;;;;;;5072259;28;21015;-89
2022/11/18 07:56:02;;;;;;;1.30;1.07;;;9.60;98.00;;;;;;5072362;28;20468;-89
2022/11/18 07:58:29;;;;;;;2.03;1.10;;;9.50;98.00;;;;;;5072944;28;20495;-89
2022/11/18 08:00:57;;;;;;;1.60;1.33;;;9.50;98.00;;;;;;5082280;28;20440;-89
2022/11/18 08:03:26;;;;;;;1.20;1.00;;;9.50;98.00;;;;;;5096390;28;20454;-89
2022/11/18 08:05:53;;;;;;;4.80;1.20;;;9.50;98.00;;;;;;5082986;28;20463;-89
2022/11/18 08:08:22;;;;;;;2.03;1.00;;;9.50;98.00;;;;;;5071880;28;20533;-89
2022/11/18 08:10:49;;;;;;;1.10;0.90;;;9.90;98.00;;;;;;5071701;28;20449;-91
2022/11/18 08:13:16;;;;;;;1.20;1.10;;;10.70;98.00;;;;;;5072323;28;20464;-89
2022/11/18 08:15:44;;;;;;;1.20;1.20;;;11.40;98.00;;;;;;5071964;28;20441;-89
2022/11/18 08:18:11;;;;;;;1.50;1.20;;;12.00;98.00;;;;;;5071351;28;20549;-89
2022/11/18 08:20:38;;;;;;;1.70;1.20;;;12.60;98.00;;;;;;5071683;28;21010;-89
2022/11/18 08:23:05;;;;;;;2.17;1.47;;;13.00;98.00;;;;;;5071140;28;20471;-88
2022/11/18 08:25:33;;;;;;;2.03;1.30;;;13.40;98.00;;;;;;5071092;28;20461;-90
2022/11/18 08:28:04;;;;;;;2.27;1.10;;;13.00;98.00;;;;;;5071214;28;20511;-90
2022/11/18 08:30:32;;;;;;;2.03;1.20;;;12.30;98.00;;;;;;5237999;23;20711;-62
2022/11/18 08:33:01;;;;;;;1.30;1.20;;;11.70;98.00;;;;;;5091057;28;20961;-62
2022/11/18 08:35:29;;;;;;;1.30;1.20;;;11.30;98.00;;;;;;5091009;28;20971;-62
2022/11/18 08:38:02;;;;;;;1.90;1.37;;;11.10;98.00;;;;;;5091068;28;20495;-60
2022/11/18 08:40:34;;;;;;;1.40;1.10;;;10.80;98.00;;;;;;5092222;28;20466;-62
2022/11/18 08:43:04;;;;;;;1.93;1.30;;;10.40;98.00;;;;;;5092281;28;21104;-60
2022/11/18 08:45:32;;;;;;;1.57;1.27;;;10.40;98.00;;;;;;5091475;28;20460;-60
2022/11/18 08:47:59;;;;;;;3.57;1.50;;;10.10;98.00;;;;;;5262982;22;20593;-60
2022/11/18 08:50:26;;;;;;;1.40;1.10;;;9.80;98.00;;;;;;5005222;28;20530;-60
2022/11/18 08:52:53;;;;;;;1.20;1.10;;;9.80;98.00;;;;;;4993687;28;20562;-60
2022/11/18 08:55:20;;;;;;;1.27;1.07;;;9.80;98.00;;;;;;5011569;28;20464;-60
2022/11/18 08:57:49;;;;;;;1.20;1.00;;;9.60;98.00;;;;;;5010881;28;20487;-60
2022/11/18 09:00:17;;;;;;;1.40;1.10;;;9.50;98.00;;;;;;4981649;28;20496;-60
2022/11/18 09:02:45;;;;;;;1.40;1.17;;;9.40;98.00;;;;;;4975307;28;20503;-61
2022/11/18 09:05:12;;;;;;;1.30;1.00;;;9.30;98.00;;;;;;4993872;28;20461;-61
2022/11/18 09:07:39;;;;;;;1.50;1.20;;;9.30;98.00;;;;;;4983673;28;20863;-61
2022/11/18 09:10:07;;;;;;;1.60;1.10;;;9.20;98.00;;;;;;5009552;28;20775;-60
2022/11/18 09:12:34;;;;;;;1.20;1.10;;;9.20;98.00;;;;;;4999024;28;20519;-61
2022/11/18 09:15:02;;;;;;;1.33;1.20;;;9.20;98.00;;;;;;4992734;28;20460;-60
2022/11/18 09:17:30;;;;;;;2.13;1.07;;;9.20;98.00;;;;;;5011111;28;20492;-61
2022/11/18 09:19:57;;;;;;;1.33;1.10;;;9.30;98.00;;;;;;4984366;28;20951;-61
2022/11/18 09:22:24;;;;;;;1.33;1.20;;;9.40;98.00;;;;;;4992215;28;20841;-60
2022/11/18 09:24:51;;;;;;;1.53;1.13;;;9.40;98.00;;;;;;4976166;28;20993;-61
2022/11/18 09:27:18;;;;;;;1.20;1.00;;;9.40;98.00;;;;;;5009140;28;20539;-61
2022/11/18 09:29:45;;;;;;;1.60;1.20;;;9.40;98.00;;;;;;5009212;28;20467;-62
2022/11/18 09:32:14;;;;;;;1.20;1.10;;;9.50;98.00;;;;;;4991579;28;20470;-61
2022/11/18 09:34:41;;;;;;;1.20;1.00;;;9.50;98.00;;;;;;5002069;28;20831;-61
2022/11/18 09:37:08;;;;;;;1.20;1.00;;;9.50;98.00;;;;;;5010364;28;20514;-61
2022/11/18 09:39:36;;;;;;;1.80;1.30;;;9.60;98.00;;;;;;4982906;28;20893;-61
2022/11/18 09:42:20;;;;;;;1.20;1.10;;;9.60;98.00;;;;;;5009624;28;20554;-61
2022/11/18 09:45:02;;;;;;;1.43;1.07;;;9.60;98.00;;;;;;4998601;28;20878;-61
2022/11/18 09:47:33;;;;;;;1.20;1.00;;;9.80;98.00;;;;;;5001194;28;20529;-60
2022/11/18 09:50:02;;;;;;;3.00;1.20;;;9.80;98.00;;;;;;4997269;28;20523;-62
2022/11/18 09:52:36;;;;;;;1.40;1.00;;;9.70;98.00;;;;;;4995997;28;20463;-61
2022/11/18 09:55:11;;;;;;;1.10;0.90;;;9.80;98.00;;;;;;5004649;28;20467;-52
2022/11/18 09:57:41;;;;;;;1.17;0.93;;;9.80;98.00;;;;;;4993050;28;20616;-62
2022/11/18 10:00:15;;;;;;;1.10;1.00;;;9.80;98.00;;;;;;5005800;28;20464;-60
2022/11/18 10:02:58;;;;;;;1.70;1.20;;;9.70;98.00;;;;;;4991590;28;20468;-60
2022/11/18 10:05:28;;;;;;;1.10;1.00;;;9.60;98.00;;;;;;5010316;28;20546;-61
2022/11/18 10:08:03;;;;;;;1.93;1.30;;;9.80;98.00;;;;;;4974495;28;20466;-62
2022/11/18 10:10:39;;;;;;;1.60;1.30;;;9.70;98.00;;;;;;5001772;28;20488;-61
2022/11/18 10:13:17;;;;;;;1.10;1.00;;;9.90;98.00;;;;;;5008716;28;20470;-61
2022/11/18 10:15:57;;;;;;;1.30;1.10;;;10.00;98.00;;;;;;5008130;28;20474;-65
2022/11/18 10:18:33;;;;;;;1.40;1.20;;;10.00;98.00;;;;;;4995032;28;20499;-62
2022/11/18 10:21:07;;;;;;;1.20;1.10;;;10.10;98.00;;;;;;4996471;28;20463;-62
2022/11/18 10:23:45;;;;;;;1.30;1.10;;;10.10;98.00;;;;;;5008772;28;20472;-63
2022/11/18 10:26:13;;;;;;;1.40;1.00;;;10.10;98.00;;;;;;4999751;28;20464;-62
2022/11/18 10:28:40;;;;;;;1.20;1.10;;;10.10;98.00;;;;;;4991947;28;20462;-62
2022/11/18 10:31:09;;;;;;;1.23;1.17;;;10.20;98.00;;;;;;4999058;28;20458;-62
2022/11/18 10:33:38;;;;;;;1.10;0.90;;;10.30;98.00;;;;;;4988521;28;20460;-62
2022/11/18 10:36:11;;;;;;;1.20;1.03;;;10.10;98.00;;;;;;5000044;28;20689;-62
2022/11/18 10:38:39;;;;;;;1.10;0.90;;;10.10;98.00;;;;;;4991409;28;20570;-62
2022/11/18 10:41:10;;;;;;;1.17;0.97;;;10.10;98.00;;;;;;4999530;28;20458;-61
2022/11/18 10:43:49;;;;;;;1.10;1.00;;;10.10;98.00;;;;;;4999396;28;20867;-61
2022/11/18 10:46:22;;;;;;;1.20;0.90;;;10.00;98.00;;;;;;5009642;28;20468;-63
2022/11/18 10:49:12;;;;;;;1.30;1.10;;;10.00;98.00;;;;;;4997838;28;20476;-63
2022/11/18 10:51:41;;;;;;;1.60;1.10;;;10.20;98.00;;;;;;4976187;28;20571;-62
2022/11/18 10:54:15;;;;;;;1.40;1.10;;;10.30;98.00;;;;;;4975329;28;20458;-62
2022/11/18 10:56:50;;;;;;;1.40;1.20;;;10.20;98.00;;;;;;4984868;28;20466;-61
2022/11/18 10:59:31;;;;;;;1.60;1.20;;;10.20;98.00;;;;;;4975005;28;20556;-62
2022/11/18 11:02:11;;;;;;;2.80;1.40;;;10.20;98.00;;;;;;4970976;28;20467;-62
2022/11/18 11:04:41;;;;;;;2.90;1.50;;;10.20;98.00;;;;;;4979692;28;20955;-62
2022/11/18 11:07:25;;;;;;;1.33;1.10;;;10.20;98.00;;;;;;4971807;28;20473;-62
2022/11/18 11:10:23;;;;;;;1.57;1.00;;;10.10;98.00;;;;;;4973274;28;20472;-63
2022/11/18 11:12:55;;;;;;;1.20;1.10;;;10.00;98.00;;;;;;4975251;28;20466;-61
2022/11/18 11:15:27;;;;;;;2.13;1.40;;;10.00;98.00;;;;;;4979884;28;20464;-62
2022/11/18 11:20:45;;;;;;;1.10;1.00;;;10.10;98.00;;;;;;4972468;28;20524;-61
2022/11/18 11:23:15;;;;;;;1.10;1.00;;;10.00;98.00;;;;;;4971332;28;20461;-63
2022/11/18 11:25:45;;;;;;;1.87;1.10;;;9.90;98.00;;;;;;4970196;28;20460;-62
2022/11/18 11:28:21;;;;;;;1.10;0.90;;;9.70;98.00;;;;;;4989481;28;20465;-63
2022/11/18 11:31:01;;;;;;;1.40;1.10;;;9.70;98.00;;;;;;4981836;28;20477;-62
2022/11/18 11:33:35;;;;;;;1.10;1.00;;;9.70;98.00;;;;;;4977832;28;20468;-62
2022/11/18 11:36:27;;;;;;;1.30;1.00;;;9.80;98.00;;;;;;4956735;28;20699;-62
2022/11/18 11:39:05;;;;;;;1.10;1.00;;;10.00;98.00;;;;;;4982601;28;20544;-61
2022/11/18 11:41:43;;;;;;;1.80;1.23;;;10.00;98.00;;;;;;4971428;28;20459;-61
2022/11/18 11:44:23;;;;;;;1.20;1.20;;;10.00;98.00;;;;;;4971469;28;20467;-62
2022/11/18 11:50:02;;;;;;;2.40;1.30;;;10.00;98.00;;;;;;4952950;28;20477;-62
2022/11/18 11:52:39;;;;;;;1.20;1.07;;;9.80;98.00;;;;;;4969078;28;20549;-61
2022/11/18 11:55:18;;;;;;;4.37;1.20;;;9.80;98.00;;;;;;4977915;28;20464;-62
2022/11/18 11:58:11;;;;;;;1.70;1.20;;;9.70;98.00;;;;;;4982647;28;20498;-61
2022/11/18 12:00:44;;;;;;;1.30;1.20;;;9.60;98.00;;;;;;4966530;28;20481;-62
2022/11/18 12:03:37;;;;;;;1.20;0.97;;;9.70;98.00;;;;;;4988992;28;20488;-62
2022/11/18 12:06:04;;;;;;;1.40;1.27;;;9.80;98.00;;;;;;4972462;28;20479;-62
2022/11/18 12:08:34;;;;;;;1.20;1.20;;;9.80;98.00;;;;;;4974589;28;20463;-62
2022/11/18 12:11:06;;;;;;;1.10;1.00;;;9.70;98.00;;;;;;4978460;28;20949;-62
2022/11/18 12:13:38;;;;;;;1.20;1.10;;;9.80;98.00;;;;;;4975727;28;21024;-62
2022/11/18 12:16:15;;;;;;;1.33;1.23;;;10.00;98.00;;;;;;4989504;28;20954;-62
2022/11/18 12:18:47;;;;;;;4.53;1.23;;;10.40;98.00;;;;;;4983396;28;20851;-62
2022/11/18 12:21:48;;;;;;;1.30;1.20;;;10.60;98.00;;;;;;4991927;28;20559;-61
2022/11/18 12:24:35;;;;;;;1.20;1.00;;;10.90;98.00;;;;;;4983854;28;20477;-62
2022/11/18 12:27:04;;;;;;;1.40;1.10;;;10.90;98.00;;;;;;4973325;28;20485;-62
2022/11/18 12:29:41;;;;;;;1.30;1.10;;;10.90;98.00;;;;;;4974718;28;20939;-62
2022/11/18 12:32:35;;;;;;;1.20;1.00;;;10.80;98.00;;;;;;4980909;28;20971;-62
2022/11/18 12:35:23;;;;;;;1.30;1.10;;;10.70;98.00;;;;;;4980963;28;20944;-63
2022/11/18 12:38:01;;;;;;;1.47;1.17;;;10.60;98.00;;;;;;4987068;28;20491;-63
2022/11/18 12:40:38;;;;;;;1.30;1.10;;;10.60;98.00;;;;;;4992915;28;20591;-62
2022/11/18 12:45:57;;;;;;;1.50;1.33;;;10.60;98.00;;;;;;4985087;28;20589;-62
2022/11/18 12:48:39;;;;;;;1.73;1.30;;;10.40;98.00;;;;;;4981235;28;20507;-62
2022/11/18 12:51:48;;;;;;;1.50;1.13;;;10.40;98.00;;;;;;4989336;28;20487;-63
2022/11/18 12:54:29;;;;;;;2.23;1.23;;;10.40;98.00;;;;;;4985845;28;20465;-62
2022/11/18 12:57:00;;;;;;;1.97;1.20;;;10.30;98.00;;;;;;4972629;28;20468;-62
2022/11/18 12:59:29;;;;;;;1.50;1.40;;;10.30;98.00;;;;;;4982000;28;20865;-62
2022/11/18 13:02:17;;;;;;;1.20;1.20;;;10.40;98.00;;;;;;4973129;28;20469;-62
2022/11/18 13:04:48;;;;;;;1.20;1.20;;;10.40;98.00;;;;;;4983891;28;21148;-63
2022/11/18 13:10:02;;;;;;;1.33;1.10;;;10.50;98.00;;;;;;4978229;28;20527;-62
2022/11/18 13:12:38;;;;;;;2.63;1.53;;;10.30;98.00;;;;;;4972686;28;20567;-62
2022/11/18 13:18:06;;;;;;;1.20;1.10;;;10.50;98.00;;;;;;4978231;28;20491;-62
2022/11/18 13:20:37;;;;;;;1.50;1.10;;;10.80;98.00;;;;;;4989689;28;20483;-62
2022/11/18 13:26:06;;;;;;;1.83;1.20;;;10.70;98.00;;;;;;4993333;28;20969;-62
2022/11/18 13:28:40;;;;;;;1.27;1.20;;;10.40;98.00;;;;;;4993913;28;20828;-62
2022/11/18 13:31:15;;;;;;;1.77;1.10;;;10.40;98.00;;;;;;4993534;28;20463;-62
2022/11/18 13:33:43;;;;;;;1.40;1.10;;;10.40;98.00;;;;;;4993712;28;20892;-62
2022/11/18 13:36:17;;;;;;;1.70;1.20;;;10.30;98.00;;;;;;4993854;28;20461;-62
2022/11/18 13:38:56;;;;;;;1.10;0.97;;;10.30;98.00;;;;;;4993543;28;20546;-62
2022/11/18 13:41:31;;;;;;;1.20;1.00;;;10.50;98.00;;;;;;4993872;28;20457;-62
2022/11/18 13:44:15;;;;;;;1.40;1.20;;;10.40;98.00;;;;;;4993577;28;20461;-62
2022/11/18 13:46:46;;;;;;;1.30;1.20;;;10.40;98.00;;;;;;4993788;28;20460;-62
2022/11/18 13:49:15;;;;;;;1.10;0.90;;;10.30;98.00;;;;;;4986195;28;20476;-62